createdAt,value
2023-05-01T00:01:59.055Z,7.53
2023-05-01T00:04:25.641Z,7.95
2023-05-01T00:06:52.510Z,5.93
2023-05-01T00:09:19.215Z,7.03
2023-05-01T00:11:46.731Z,6.83
2023-05-01T00:14:13.356Z,6.32
2023-05-01T00:16:40.009Z,6.13
2023-05-01T00:19:06.630Z,7.78
2023-05-01T00:21:33.214Z,6.90
2023-05-01T00:24:00.122Z,6.90
2023-05-01T00:26:30.567Z,6.80
2023-05-01T00:28:58.486Z,6.25
2023-05-01T00:31:26.029Z,7.60
2023-05-01T00:33:52.908Z,6.22
2023-05-01T00:36:19.608Z,5.90
2023-05-01T00:38:46.605Z,7.45
2023-05-01T00:41:13.325Z,8.07
2023-05-01T00:43:39.946Z,7.45
2023-05-01T00:46:08.545Z,6.88
2023-05-01T00:48:35.530Z,6.13
2023-05-01T00:51:06.346Z,6.53
2023-05-01T00:53:33.916Z,7.15
2023-05-01T00:56:01.120Z,6.40
2023-05-01T00:58:28.156Z,6.05
2023-05-01T01:00:55.491Z,6.57
2023-05-01T01:03:22.266Z,7.45
2023-05-01T01:06:03.828Z,6.47
2023-05-01T01:08:37.331Z,6.50
2023-05-01T01:11:27.069Z,6.55
2023-05-01T01:14:15.799Z,7.40
2023-05-01T01:17:21.398Z,7.78
2023-05-01T01:20:19.093Z,7.63
2023-05-01T01:22:53.513Z,7.00
2023-05-01T01:25:38.600Z,6.72
2023-05-01T01:28:26.380Z,7.43
2023-05-01T01:31:11.380Z,6.60
2023-05-01T01:33:50.205Z,7.45
2023-05-01T01:36:22.865Z,6.65
2023-05-01T01:39:03.929Z,7.22
2023-05-01T01:41:41.780Z,7.87
2023-05-01T01:44:31.121Z,7.82
2023-05-01T01:47:00.126Z,7.45
2023-05-01T01:49:31.863Z,8.05
2023-05-01T01:52:02.066Z,8.25
2023-05-01T01:54:37.919Z,6.73
2023-05-01T01:57:07.515Z,7.53
2023-05-01T01:59:35.311Z,7.38
2023-05-01T02:02:03.291Z,6.68
2023-05-01T02:04:31.374Z,7.28
2023-05-01T02:07:00.073Z,7.40
2023-05-01T02:09:29.826Z,7.38
2023-05-01T02:11:57.853Z,8.13
2023-05-01T02:14:27.238Z,7.03
2023-05-01T02:16:55.318Z,7.68
2023-05-01T02:19:22.685Z,7.10
2023-05-01T02:21:50.428Z,7.20
2023-05-01T02:24:18.549Z,7.80
2023-05-01T02:26:51.901Z,7.18
2023-05-01T02:29:18.506Z,7.53
2023-05-01T02:31:45.155Z,7.23
2023-05-01T02:34:12.483Z,8.30
2023-05-01T02:36:39.170Z,7.57
2023-05-01T02:39:06.792Z,7.55
2023-05-01T02:41:35.143Z,7.18
2023-05-01T02:44:04.999Z,7.10
2023-05-01T02:46:37.242Z,7.53
2023-05-01T02:49:05.407Z,8.07
2023-05-01T02:51:32.675Z,7.88
2023-05-01T02:54:00.232Z,8.77
2023-05-01T02:56:28.202Z,9.73
2023-05-01T02:58:55.383Z,7.88
2023-05-01T03:01:22.378Z,9.52
2023-05-01T03:03:49.053Z,8.00
2023-05-01T03:06:15.738Z,8.43
2023-05-01T03:08:42.363Z,9.67
2023-05-01T03:11:09.664Z,8.18
2023-05-01T03:13:36.437Z,9.50
2023-05-01T03:16:04.876Z,9.10
2023-05-01T03:18:31.859Z,8.30
2023-05-01T03:20:58.502Z,9.20
2023-05-01T03:23:25.656Z,8.27
2023-05-01T03:25:52.752Z,7.95
2023-05-01T03:28:20.743Z,8.63
2023-05-01T03:30:47.550Z,7.85
2023-05-01T03:33:14.223Z,7.73
2023-05-01T03:35:41.017Z,8.15
2023-05-01T03:38:08.169Z,9.63
2023-05-01T03:40:34.844Z,8.38
2023-05-01T03:43:01.494Z,9.25
2023-05-01T03:45:28.301Z,8.57
2023-05-01T03:47:55.261Z,8.52
2023-05-01T03:50:22.154Z,8.10
2023-05-01T03:52:48.776Z,7.57
2023-05-01T03:55:16.078Z,11.23
2023-05-01T03:57:42.802Z,9.47
2023-05-01T04:00:11.939Z,7.93
2023-05-01T04:02:38.813Z,8.88
2023-05-01T04:05:08.538Z,9.00
2023-05-01T04:07:35.282Z,9.88
2023-05-01T04:10:01.897Z,8.67
2023-05-01T04:12:28.502Z,8.38
2023-05-01T04:14:55.135Z,8.50
2023-05-01T04:17:21.800Z,8.43
2023-05-01T04:19:48.936Z,10.07
2023-05-01T04:22:16.327Z,9.07
2023-05-01T04:24:43.038Z,8.73
2023-05-01T04:27:09.993Z,10.18
2023-05-01T04:29:36.622Z,9.05
2023-05-01T04:32:03.553Z,11.05
2023-05-01T04:34:30.192Z,9.90
2023-05-01T04:36:57.460Z,10.23
2023-05-01T04:39:24.278Z,9.45
2023-05-01T04:41:50.910Z,8.52
2023-05-01T04:44:17.456Z,9.40
2023-05-01T04:46:44.055Z,8.77
2023-05-01T04:49:10.761Z,9.80
2023-05-01T04:51:37.345Z,8.50
2023-05-01T04:54:04.880Z,9.30
2023-05-01T04:56:32.394Z,10.93
2023-05-01T04:58:59.060Z,11.07
2023-05-01T05:01:25.690Z,10.65
2023-05-01T05:03:52.623Z,9.65
2023-05-01T05:06:19.524Z,10.68
2023-05-01T05:08:46.168Z,9.73
2023-05-01T05:11:13.016Z,10.30
2023-05-01T05:13:39.671Z,9.48
2023-05-01T05:16:06.669Z,10.30
2023-05-01T05:18:33.289Z,10.85
2023-05-01T05:21:03.669Z,11.75
2023-05-01T05:23:30.320Z,10.13
2023-05-01T05:25:58.586Z,11.23
2023-05-01T05:28:25.416Z,10.55
2023-05-01T05:30:52.478Z,9.48
2023-05-01T05:33:19.260Z,9.80
2023-05-01T05:35:46.083Z,12.17
2023-05-01T05:38:12.718Z,11.10
2023-05-01T05:40:39.387Z,12.38
2023-05-01T05:43:05.960Z,10.77
2023-05-01T05:45:35.858Z,10.80
2023-05-01T05:48:03.049Z,10.73
2023-05-01T05:50:30.199Z,11.23
2023-05-01T05:52:56.865Z,10.65
2023-05-01T05:55:23.403Z,9.85
2023-05-01T05:57:50.012Z,10.68
2023-05-01T06:00:17.354Z,10.33
2023-05-01T06:02:44.018Z,10.38
2023-05-01T06:05:10.887Z,11.00
2023-05-01T06:07:38.083Z,11.27
2023-05-01T06:10:05.528Z,10.98
2023-05-01T06:12:32.560Z,10.63
2023-05-01T06:15:00.605Z,10.60
2023-05-01T06:17:27.294Z,11.13
2023-05-01T06:19:54.118Z,10.63
2023-05-01T06:22:21.005Z,10.00
2023-05-01T06:24:47.653Z,10.20
2023-05-01T06:27:14.540Z,9.30
2023-05-01T06:29:41.565Z,9.55
2023-05-01T06:32:08.183Z,11.07
2023-05-01T06:34:34.889Z,9.20
2023-05-01T06:37:01.546Z,10.10
2023-05-01T06:39:29.060Z,11.05
2023-05-01T06:41:55.899Z,10.75
2023-05-01T06:44:22.619Z,11.25
2023-05-01T06:46:49.361Z,11.20
2023-05-01T06:49:15.996Z,11.70
2023-05-01T06:51:42.693Z,11.70
2023-05-01T06:54:09.526Z,10.50
2023-05-01T06:56:36.194Z,11.57
2023-05-01T06:59:02.772Z,9.52
2023-05-01T07:01:31.114Z,11.50
2023-05-01T07:03:58.691Z,10.07
2023-05-01T07:06:25.366Z,9.98
2023-05-01T07:08:52.177Z,9.73
2023-05-01T07:11:18.873Z,9.98
2023-05-01T07:13:45.885Z,10.47
2023-05-01T07:16:12.562Z,10.00
2023-05-01T07:18:39.398Z,10.95
2023-05-01T07:21:06.319Z,10.27
2023-05-01T07:23:33.119Z,11.35
2023-05-01T07:25:59.761Z,9.90
2023-05-01T07:28:26.325Z,10.43
2023-05-01T07:30:53.063Z,9.30
2023-05-01T07:33:19.747Z,9.73
2023-05-01T07:35:46.812Z,9.50
2023-05-01T07:38:14.239Z,10.43
2023-05-01T07:40:41.089Z,10.85
2023-05-01T07:43:11.265Z,9.27
2023-05-01T07:45:39.277Z,9.45
2023-05-01T07:48:06.449Z,9.30
2023-05-01T07:50:33.276Z,9.50
2023-05-01T07:52:59.954Z,9.73
2023-05-01T07:55:26.749Z,10.35
2023-05-01T07:57:53.617Z,9.25
2023-05-01T08:00:20.376Z,10.70
2023-05-01T08:02:47.404Z,9.57
2023-05-01T08:05:14.584Z,9.88
2023-05-01T08:07:41.187Z,11.07
2023-05-01T08:10:08.314Z,10.02
2023-05-01T08:12:35.002Z,10.25
2023-05-01T08:15:01.787Z,9.43
2023-05-01T08:17:28.470Z,9.95
2023-05-01T08:19:57.007Z,11.30
2023-05-01T08:22:24.310Z,10.10
2023-05-01T08:24:51.448Z,10.60
2023-05-01T08:27:18.368Z,9.30
2023-05-01T08:29:45.166Z,10.02
2023-05-01T08:32:11.945Z,12.25
2023-05-01T08:34:38.507Z,10.90
2023-05-01T08:37:05.264Z,9.65
2023-05-01T08:39:31.922Z,9.73
2023-05-01T08:41:59.497Z,9.27
2023-05-01T08:44:29.718Z,10.93
2023-05-01T08:47:06.891Z,8.98
2023-05-01T08:49:37.016Z,16.50
2023-05-01T08:52:06.358Z,11.60
2023-05-01T08:54:34.745Z,9.25
2023-05-01T08:57:06.303Z,9.90
2023-05-01T08:59:37.298Z,12.88
2023-05-01T09:02:06.758Z,10.48
2023-05-01T09:04:38.566Z,10.53
2023-05-01T09:07:05.673Z,10.25
2023-05-01T09:09:32.991Z,13.65
2023-05-01T09:12:24.803Z,13.90
2023-05-01T09:14:55.428Z,11.68
2023-05-01T09:17:23.613Z,11.80
2023-05-01T09:19:53.524Z,11.38
2023-05-01T09:22:20.693Z,12.35
2023-05-01T09:24:47.352Z,11.05
2023-05-01T09:27:14.773Z,12.10
2023-05-01T09:29:45.826Z,11.87
2023-05-01T09:32:21.750Z,13.50
2023-05-01T09:34:52.375Z,12.13
2023-05-01T09:37:30.526Z,14.18
2023-05-01T09:40:11.677Z,15.63
2023-05-01T09:42:49.612Z,16.27
2023-05-01T09:45:16.911Z,13.45
2023-05-01T09:47:44.303Z,14.23
2023-05-01T09:50:30.247Z,12.45
2023-05-01T09:52:56.828Z,16.65
2023-05-01T09:55:26.737Z,18.07
2023-05-01T09:57:56.630Z,18.42
2023-05-01T10:00:23.134Z,13.20
2023-05-01T10:02:50.747Z,14.57
2023-05-01T10:05:18.392Z,17.00
2023-05-01T10:08:03.902Z,14.60
2023-05-01T10:10:30.882Z,16.05
2023-05-01T10:13:18.802Z,12.43
2023-05-01T10:15:48.405Z,13.63
2023-05-01T10:18:15.386Z,14.98
2023-05-01T10:20:42.150Z,13.20
2023-05-01T10:23:08.957Z,13.20
2023-05-01T10:25:37.275Z,18.17
2023-05-01T10:28:05.043Z,14.07
2023-05-01T10:30:31.702Z,15.30
2023-05-01T10:32:59.642Z,13.67
2023-05-01T10:35:30.231Z,15.02
2023-05-01T10:38:02.091Z,13.90
2023-05-01T10:40:43.955Z,16.67
2023-05-01T10:43:30.832Z,16.48
2023-05-01T10:46:09.710Z,14.13
2023-05-01T10:48:45.202Z,15.50
2023-05-01T10:51:13.588Z,15.57
2023-05-01T10:53:41.553Z,17.50
2023-05-01T10:56:25.526Z,14.88
2023-05-01T10:59:05.238Z,14.00
2023-05-01T11:01:36.996Z,16.65
2023-05-01T11:04:26.434Z,16.55
2023-05-01T11:07:02.404Z,15.52
2023-05-01T11:09:42.422Z,14.95
2023-05-01T11:12:11.442Z,15.03
2023-05-01T11:15:04.008Z,14.15
2023-05-01T11:17:39.703Z,13.18
2023-05-01T11:20:11.297Z,13.32
2023-05-01T11:22:40.922Z,15.13
2023-05-01T11:25:22.535Z,15.87
2023-05-01T11:27:51.120Z,14.90
2023-05-01T11:30:18.415Z,12.90
2023-05-01T11:32:47.423Z,13.63
2023-05-01T11:35:28.603Z,14.60
2023-05-01T11:37:58.299Z,12.37
2023-05-01T11:40:32.666Z,13.32
2023-05-01T11:43:17.078Z,12.25
2023-05-01T11:45:44.048Z,13.10
2023-05-01T11:48:16.757Z,12.95
2023-05-01T11:50:43.786Z,12.47
2023-05-01T11:53:12.111Z,13.25
2023-05-01T11:55:38.999Z,12.88
2023-05-01T11:58:06.406Z,13.73
2023-05-01T12:00:38.702Z,12.90
2023-05-01T12:03:10.749Z,13.03
2023-05-01T12:05:43.147Z,14.10
2023-05-01T12:08:18.852Z,15.85
2023-05-01T12:10:48.414Z,25.60
2023-05-01T12:13:17.197Z,23.88
2023-05-01T12:15:47.151Z,16.67
2023-05-01T12:18:15.452Z,16.17
2023-05-01T12:20:44.922Z,16.23
2023-05-01T12:23:14.667Z,16.80
2023-05-01T12:25:43.142Z,16.27
2023-05-01T12:28:19.148Z,15.50
2023-05-01T12:30:47.992Z,19.88
2023-05-01T12:33:21.544Z,23.17
2023-05-01T12:35:50.820Z,21.23
2023-05-01T12:38:19.314Z,19.92
2023-05-01T12:40:56.023Z,15.93
2023-05-01T12:43:31.531Z,19.30
2023-05-01T12:45:58.434Z,19.00
2023-05-01T12:48:25.394Z,18.85
2023-05-01T12:50:55.494Z,17.08
2023-05-01T12:53:23.459Z,19.37
2023-05-01T12:55:53.745Z,19.05
2023-05-01T12:58:21.420Z,18.67
2023-05-01T13:00:53.706Z,19.38
2023-05-01T13:03:27.968Z,20.15
2023-05-01T13:05:58.950Z,19.10
2023-05-01T13:08:27.815Z,20.65
2023-05-01T13:10:57.320Z,17.98
2023-05-01T13:13:29.153Z,17.70
2023-05-01T13:16:06.100Z,16.67
2023-05-01T13:18:33.777Z,17.00
2023-05-01T13:21:09.044Z,17.20
2023-05-01T13:23:39.270Z,16.45
2023-05-01T13:26:07.801Z,17.10
2023-05-01T13:28:36.001Z,14.88
2023-05-01T13:31:02.597Z,15.00
2023-05-01T13:33:31.978Z,15.10
2023-05-01T13:35:58.594Z,14.75
2023-05-01T13:38:25.306Z,13.98
2023-05-01T13:40:51.844Z,13.68
2023-05-01T13:43:18.444Z,14.60
2023-05-01T13:45:45.138Z,13.60
2023-05-01T13:48:12.720Z,13.25
2023-05-01T13:50:42.749Z,17.02
2023-05-01T13:53:09.842Z,14.93
2023-05-01T13:55:40.208Z,17.10
2023-05-01T13:58:07.350Z,12.43
2023-05-01T14:00:34.336Z,13.50
2023-05-01T14:03:01.083Z,14.07
2023-05-01T14:05:30.854Z,13.25
2023-05-01T14:07:58.720Z,14.17
2023-05-01T14:10:28.264Z,14.27
2023-05-01T14:12:59.255Z,16.15
2023-05-01T14:15:26.522Z,13.15
2023-05-01T14:17:53.483Z,13.43
2023-05-01T14:20:20.212Z,13.90
2023-05-01T14:22:48.846Z,13.55
2023-05-01T14:25:31.478Z,13.13
2023-05-01T14:27:59.958Z,12.88
2023-05-01T14:30:33.631Z,15.20
2023-05-01T14:33:06.280Z,14.27
2023-05-01T14:35:33.891Z,14.98
2023-05-01T14:38:11.382Z,13.48
2023-05-01T14:40:42.197Z,14.52
2023-05-01T14:43:13.414Z,14.57
2023-05-01T14:45:42.993Z,13.47
2023-05-01T14:48:20.581Z,14.05
2023-05-01T14:50:47.259Z,15.68
2023-05-01T14:53:14.178Z,14.20
2023-05-01T14:55:41.920Z,14.27
2023-05-01T14:58:08.583Z,14.30
2023-05-01T15:00:35.598Z,12.75
2023-05-01T15:03:02.841Z,14.73
2023-05-01T15:05:30.208Z,14.23
2023-05-01T15:07:57.324Z,12.73
2023-05-01T15:10:24.077Z,13.13
2023-05-01T15:12:51.472Z,14.90
2023-05-01T15:15:18.144Z,14.45
2023-05-01T15:17:45.455Z,12.65
2023-05-01T15:20:13.336Z,12.60
2023-05-01T15:22:41.065Z,15.37
2023-05-01T15:25:10.166Z,14.98
2023-05-01T15:27:37.024Z,13.73
2023-05-01T15:30:05.458Z,13.60
2023-05-01T15:32:32.262Z,14.00
2023-05-01T15:34:59.242Z,15.73
2023-05-01T15:37:26.228Z,14.30
2023-05-01T15:39:53.125Z,14.13
2023-05-01T15:42:20.198Z,13.68
2023-05-01T15:44:48.045Z,15.00
2023-05-01T15:47:17.747Z,15.33
2023-05-01T15:49:44.444Z,15.70
2023-05-01T15:52:11.551Z,12.93
2023-05-01T15:54:38.219Z,15.15
2023-05-01T15:57:05.002Z,16.35
2023-05-01T15:59:31.609Z,14.43
2023-05-01T16:01:58.431Z,13.48
2023-05-01T16:04:25.015Z,13.27
2023-05-01T16:06:51.799Z,13.32
2023-05-01T16:09:19.128Z,13.75
2023-05-01T16:11:45.885Z,13.23
2023-05-01T16:14:15.255Z,13.52
2023-05-01T16:16:42.844Z,13.80
2023-05-01T16:19:09.566Z,14.27
2023-05-01T16:21:37.573Z,14.32
2023-05-01T16:24:04.704Z,13.17
2023-05-01T16:26:31.592Z,14.30
2023-05-01T16:29:05.469Z,15.60
2023-05-01T16:31:38.959Z,14.63
2023-05-01T16:34:07.441Z,15.20
2023-05-01T16:36:36.221Z,14.37
2023-05-01T16:39:03.341Z,15.80
2023-05-01T16:41:30.108Z,14.73
2023-05-01T16:44:00.046Z,14.95
2023-05-01T16:46:26.835Z,14.40
2023-05-01T16:48:55.290Z,15.17
2023-05-01T16:51:22.106Z,15.27
2023-05-01T16:53:48.820Z,14.60
2023-05-01T16:56:15.384Z,14.80
2023-05-01T16:58:43.965Z,14.32
2023-05-01T17:01:10.690Z,14.77
2023-05-01T17:03:38.047Z,15.18
2023-05-01T17:06:05.071Z,15.57
2023-05-01T17:08:31.947Z,16.42
2023-05-01T17:10:58.670Z,14.18
2023-05-01T17:13:25.315Z,14.83
2023-05-01T17:15:52.808Z,14.82
2023-05-01T17:18:20.946Z,15.25
2023-05-01T17:20:48.988Z,16.50
2023-05-01T17:23:16.212Z,15.45
2023-05-01T17:25:43.543Z,14.37
2023-05-01T17:28:10.725Z,18.42
2023-05-01T17:30:37.283Z,13.70
2023-05-01T17:33:04.464Z,14.18
2023-05-01T17:35:31.573Z,16.60
2023-05-01T17:37:58.513Z,15.97
2023-05-01T17:40:25.085Z,15.90
2023-05-01T17:42:51.626Z,18.95
2023-05-01T17:45:19.382Z,17.52
2023-05-01T17:47:46.782Z,18.85
2023-05-01T17:50:14.214Z,14.53
2023-05-01T17:52:42.158Z,16.02
2023-05-01T17:55:09.692Z,15.50
2023-05-01T17:57:37.131Z,15.80
2023-05-01T18:00:04.637Z,15.48
2023-05-01T18:02:31.875Z,15.50
2023-05-01T18:04:58.687Z,15.57
2023-05-01T18:07:26.038Z,14.98
2023-05-01T18:09:53.292Z,15.98
2023-05-01T18:12:19.907Z,19.20
2023-05-01T18:14:46.600Z,19.83
2023-05-01T18:17:13.300Z,19.13
2023-05-01T18:19:39.989Z,19.70
2023-05-01T18:22:07.423Z,15.30
2023-05-01T18:24:34.070Z,17.40
2023-05-01T18:27:01.077Z,16.50
2023-05-01T18:29:27.719Z,16.33
2023-05-01T18:31:57.400Z,16.55
2023-05-01T18:34:27.372Z,15.77
2023-05-01T18:36:54.772Z,15.38
2023-05-01T18:39:22.461Z,16.77
2023-05-01T18:41:50.212Z,17.20
2023-05-01T18:44:17.852Z,19.15
2023-05-01T18:46:44.843Z,19.52
2023-05-01T18:49:11.687Z,19.60
2023-05-01T18:51:38.368Z,18.13
2023-05-01T18:54:07.144Z,23.38
2023-05-01T18:56:34.493Z,21.60
2023-05-01T18:59:01.316Z,21.55
2023-05-01T19:01:28.024Z,21.17
2023-05-01T19:03:59.157Z,19.10
2023-05-01T19:06:26.814Z,23.20
2023-05-01T19:08:53.880Z,19.80
2023-05-01T19:11:21.718Z,18.48
2023-05-01T19:13:48.930Z,17.88
2023-05-01T19:16:15.644Z,17.50
2023-05-01T19:18:42.246Z,17.13
2023-05-01T19:21:09.221Z,16.63
2023-05-01T19:23:37.610Z,21.33
2023-05-01T19:26:06.324Z,16.42
2023-05-01T19:28:32.932Z,17.73
2023-05-01T19:30:59.573Z,16.65
2023-05-01T19:33:26.300Z,18.30
2023-05-01T19:35:52.949Z,16.40
2023-05-01T19:38:19.626Z,18.75
2023-05-01T19:40:46.339Z,18.33
2023-05-01T19:43:18.364Z,16.85
2023-05-01T19:45:45.012Z,19.08
2023-05-01T19:48:11.702Z,17.45
2023-05-01T19:50:38.424Z,17.70
2023-05-01T19:53:05.723Z,16.53
2023-05-01T19:55:32.434Z,16.48
2023-05-01T19:57:59.152Z,16.67
2023-05-01T20:00:27.701Z,16.42
2023-05-01T20:02:54.378Z,17.70
2023-05-01T20:05:30.531Z,16.27
2023-05-01T20:07:58.702Z,16.65
2023-05-01T20:10:25.755Z,17.50
2023-05-01T20:12:52.560Z,17.92
2023-05-01T20:15:19.725Z,18.25
2023-05-01T20:17:50.389Z,16.93
2023-05-01T20:20:19.384Z,19.65
2023-05-01T20:22:51.707Z,18.60
2023-05-01T20:25:18.257Z,20.05
2023-05-01T20:27:44.814Z,17.95
2023-05-01T20:30:11.747Z,17.70
2023-05-01T20:32:44.416Z,21.65
2023-05-01T20:35:11.789Z,21.55
2023-05-01T20:37:38.454Z,20.45
2023-05-01T20:40:07.232Z,18.45
2023-05-01T20:42:33.884Z,20.27
2023-05-01T20:45:00.498Z,19.17
2023-05-01T20:47:27.117Z,19.05
2023-05-01T20:49:54.196Z,18.98
2023-05-01T20:52:20.916Z,16.45
2023-05-01T20:54:47.565Z,17.07
2023-05-01T20:57:16.552Z,15.80
2023-05-01T20:59:48.395Z,16.98
2023-05-01T21:02:16.464Z,15.23
2023-05-01T21:04:49.194Z,15.93
2023-05-01T21:07:16.181Z,14.33
2023-05-01T21:09:46.662Z,17.48
2023-05-01T21:12:14.130Z,13.30
2023-05-01T21:14:41.280Z,13.68
2023-05-01T21:17:08.867Z,12.15
2023-05-01T21:19:42.358Z,11.97
2023-05-01T21:22:18.032Z,13.20
2023-05-01T21:24:45.535Z,13.45
2023-05-01T21:27:12.541Z,14.80
2023-05-01T21:29:40.393Z,14.77
2023-05-01T21:32:08.432Z,14.57
2023-05-01T21:34:35.608Z,16.52
2023-05-01T21:37:02.330Z,14.65
2023-05-01T21:39:31.031Z,18.17
2023-05-01T21:41:57.627Z,15.27
2023-05-01T21:44:29.860Z,15.27
2023-05-01T21:46:57.956Z,17.75
2023-05-01T21:49:27.147Z,15.90
2023-05-01T21:51:58.279Z,15.45
2023-05-01T21:54:27.844Z,16.73
2023-05-01T21:56:59.499Z,18.83
2023-05-01T21:59:35.121Z,17.52
2023-05-01T22:02:09.915Z,15.85
2023-05-01T22:04:37.381Z,17.17
2023-05-01T22:07:04.810Z,18.05
2023-05-01T22:09:32.325Z,18.53
2023-05-01T22:11:59.160Z,19.42
2023-05-01T22:14:33.621Z,20.65
2023-05-01T22:17:10.653Z,18.38
2023-05-01T22:19:38.169Z,21.45
2023-05-01T22:22:04.816Z,19.27
2023-05-01T22:24:31.742Z,20.02
2023-05-01T22:26:58.397Z,20.20
2023-05-01T22:29:25.376Z,18.65
2023-05-01T22:31:51.979Z,17.40
2023-05-01T22:34:18.602Z,17.97
2023-05-01T22:36:45.252Z,17.58
2023-05-01T22:39:12.283Z,19.27
2023-05-01T22:41:42.931Z,17.15
2023-05-01T22:44:09.557Z,16.98
2023-05-01T22:46:36.174Z,17.17
2023-05-01T22:49:04.360Z,18.15
2023-05-01T22:51:31.205Z,16.77
2023-05-01T22:53:57.894Z,16.33
2023-05-01T22:56:26.391Z,15.43
2023-05-01T22:58:53.112Z,15.93
2023-05-01T23:01:20.126Z,15.73
2023-05-01T23:03:46.978Z,15.23
2023-05-01T23:06:13.694Z,14.85
2023-05-01T23:08:40.806Z,15.65
2023-05-01T23:11:10.083Z,15.00
2023-05-01T23:13:37.480Z,13.77
2023-05-01T23:16:04.482Z,13.80
2023-05-01T23:18:36.655Z,13.95
2023-05-01T23:21:03.513Z,13.88
2023-05-01T23:23:31.083Z,13.27
2023-05-01T23:25:57.784Z,13.88
2023-05-01T23:28:26.090Z,12.52
2023-05-01T23:31:03.521Z,14.65
2023-05-01T23:33:39.106Z,13.15
2023-05-01T23:36:12.873Z,14.23
2023-05-01T23:38:40.559Z,14.48
2023-05-01T23:41:08.476Z,13.82
2023-05-01T23:43:36.317Z,13.13
2023-05-01T23:46:04.091Z,14.85
2023-05-01T23:48:32.132Z,13.27
2023-05-01T23:50:58.907Z,14.45
2023-05-01T23:53:25.856Z,16.05
2023-05-01T23:55:52.665Z,14.05
2023-05-01T23:58:19.328Z,15.95
